This is the latest recevied weather packets stored in our database for station/object SQ6PCH-10. If no packets are shown the sender has not sent any weather packets the latest 10 day(s).
| Time | Temp. | Humidity | Pressure | Rain* | Wind** | Luminosity | Snow |
|---|---|---|---|---|---|---|---|
| 1777115086 | 22.78° C | 24% | 997.8 hPa | - | - | - | - |
| 1777114486 | 21.11° C | 26% | 997.8 hPa | - | - | - | - |
| 1777113885 | 21.67° C | 26% | 998 hPa | - | - | - | - |
| 1777113285 | 22.22° C | 26% | 998 hPa | - | - | - | - |
| 1777112685 | 20.56° C | 29% | 998.1 hPa | - | - | - | - |
| 1777112085 | 21.11° C | 29% | 998 hPa | - | - | - | - |
| 1777111484 | 20.56° C | 31% | 998.1 hPa | - | - | - | - |
| 1777110884 | 20° C | 31% | 998.3 hPa | - | - | - | - |
| 1777110284 | 19.44° C | 32% | 998.3 hPa | - | - | - | - |
| 1777109684 | 21.11° C | 33% | 998.4 hPa | - | - | - | - |
| 1777109084 | 18.33° C | 38% | 998.3 hPa | - | - | - | - |
| 1777108483 | 17.78° C | 39% | 998.4 hPa | - | - | - | - |
| 1777107883 | 17.22° C | 41% | 998.3 hPa | - | - | - | - |
| 1777107283 | 18.33° C | 40% | 998.5 hPa | - | - | - | - |
| 1777106683 | 16.67° C | 45% | 998.6 hPa | - | - | - | - |
| 1777106083 | 15.56° C | 48% | 998.4 hPa | - | - | - | - |
| 1777105483 | 16.11° C | 47% | 998.4 hPa | - | - | - | - |
| 1777104882 | 15.56° C | 49% | 998.5 hPa | - | - | - | - |
| 1777104282 | 14.44° C | 52% | 998.4 hPa | - | - | - | - |
| 1777103682 | 14.44° C | 53% | 998.5 hPa | - | - | - | - |
| 1777103082 | 13.33° C | 55% | 998.7 hPa | - | - | - | - |
| 1777102481 | 13.33° C | 56% | 998.6 hPa | - | - | - | - |
| 1777101881 | 12.78° C | 59% | 998.6 hPa | - | - | - | - |
| 1777101281 | 11.67° C | 64% | 998.8 hPa | - | - | - | - |
| 1777100681 | 11.67° C | 63% | 998.8 hPa | - | - | - | - |
* Rain since midnight (hover to see other rain measurements)
** Current wind speed in m/s (hover to see current wind gust speed)